Time;durP1;ratioP1;P1;durP2;ratioP2;P2;SDS_P1;SDS_P2;PMS_P1;PMS_P2;Temp;Humidity;BMP_temperature;BMP_pressure;BME280_temperature;BME280_humidity;BME280_pressure;Samples;Min_cycle;Max_cycle;Signal;HPM_P1;HPM_P2
2023/02/07 00:00:49;;;;;;;7.30;1.60;;;0.60;99.90;;;;;;5032611;28;20034;-82
2023/02/07 00:03:15;;;;;;;10.45;2.40;;;0.70;99.90;;;;;;5055780;28;20127;-80
2023/02/07 00:05:40;;;;;;;7.68;1.70;;;0.80;99.90;;;;;;5042731;28;20045;-83
2023/02/07 00:08:06;;;;;;;4.25;1.33;;;0.70;99.90;;;;;;5041670;28;20098;-82
2023/02/07 00:10:33;;;;;;;5.80;1.85;;;0.80;99.90;;;;;;5058735;28;20120;-82
2023/02/07 00:12:59;;;;;;;5.82;1.40;;;0.80;99.90;;;;;;5023121;28;20494;-81
2023/02/07 00:15:26;;;;;;;6.03;1.92;;;0.80;99.90;;;;;;5054803;28;20233;-83
2023/02/07 00:17:51;;;;;;;4.93;1.88;;;0.70;99.90;;;;;;5021983;28;20401;-84
2023/02/07 00:20:17;;;;;;;7.68;2.40;;;0.70;99.90;;;;;;5035781;28;20022;-83
2023/02/07 00:22:44;;;;;;;7.20;2.63;;;0.70;99.90;;;;;;5041415;28;20021;-82
2023/02/07 00:25:10;;;;;;;11.63;2.95;;;0.70;99.90;;;;;;5052962;28;20112;-81
2023/02/07 00:27:36;;;;;;;7.88;3.00;;;0.80;99.90;;;;;;5023332;28;20029;-82
2023/02/07 00:30:03;;;;;;;9.00;3.60;;;0.80;99.90;;;;;;5036773;28;20488;-82
2023/02/07 00:32:33;;;;;;;7.57;3.20;;;0.60;99.90;;;;;;5056019;28;20037;-81
2023/02/07 00:34:59;;;;;;;5.20;2.00;;;0.60;99.90;;;;;;5054829;28;20025;-81
2023/02/07 00:37:25;;;;;;;8.60;2.10;;;0.50;99.90;;;;;;5036527;28;20079;-83
2023/02/07 00:39:51;;;;;;;7.43;1.83;;;0.60;99.90;;;;;;5020130;28;20025;-81
2023/02/07 00:42:18;;;;;;;6.88;2.03;;;0.50;99.90;;;;;;5034830;28;20428;-83
2023/02/07 00:44:44;;;;;;;7.47;2.15;;;0.50;99.90;;;;;;5037711;28;20393;-82
2023/02/07 00:47:09;;;;;;;6.38;2.40;;;0.50;99.90;;;;;;5022892;28;20491;-82
2023/02/07 00:49:36;;;;;;;8.98;1.58;;;0.50;99.90;;;;;;5018750;28;20041;-82
2023/02/07 00:52:02;;;;;;;6.20;1.40;;;0.50;99.90;;;;;;5052128;28;20040;-81
2023/02/07 00:54:28;;;;;;;5.40;1.95;;;0.40;99.90;;;;;;5033434;28;20028;-82
2023/02/07 00:56:53;;;;;;;6.45;1.85;;;0.40;99.90;;;;;;5056057;28;20114;-82
2023/02/07 00:59:19;;;;;;;8.27;1.77;;;0.30;99.90;;;;;;5036838;28;20036;-83
2023/02/07 01:01:45;;;;;;;4.45;1.60;;;0.40;99.90;;;;;;5039457;28;20021;-82
2023/02/07 01:04:11;;;;;;;6.60;1.55;;;0.20;99.90;;;;;;5018217;28;20375;-83
2023/02/07 01:06:36;;;;;;;5.93;1.75;;;0.20;99.90;;;;;;5040143;28;20036;-82
2023/02/07 01:09:04;;;;;;;5.22;1.98;;;0.30;99.90;;;;;;5035938;28;20072;-82
2023/02/07 01:11:30;;;;;;;5.05;1.48;;;0.10;99.90;;;;;;5039244;28;20045;-82
2023/02/07 01:13:59;;;;;;;6.53;2.20;;;0.00;99.90;;;;;;5018565;28;20026;-81
2023/02/07 01:16:32;;;;;;;4.75;1.73;;;0.00;99.90;;;;;;5023430;28;20064;-82
2023/02/07 01:19:00;;;;;;;5.20;1.58;;;0.00;99.90;;;;;;5038723;28;20377;-82
2023/02/07 01:21:27;;;;;;;5.00;1.23;;;0.00;99.90;;;;;;5025236;28;20431;-84
2023/02/07 01:23:56;;;;;;;6.55;1.60;;;-0.20;99.90;;;;;;5042013;28;20025;-82
2023/02/07 01:26:25;;;;;;;7.10;2.13;;;-0.10;99.90;;;;;;5041233;28;20025;-81
2023/02/07 01:28:53;;;;;;;6.70;1.90;;;-0.30;99.90;;;;;;5045433;28;20028;-80
2023/02/07 01:31:20;;;;;;;6.68;2.25;;;-0.40;99.90;;;;;;5028206;28;20489;-82
2023/02/07 01:33:51;;;;;;;7.25;2.10;;;-0.50;99.90;;;;;;5060234;28;20021;-83
2023/02/07 01:36:17;;;;;;;7.50;1.92;;;-0.60;99.90;;;;;;5024728;28;20029;-81
2023/02/07 01:38:42;;;;;;;6.65;2.75;;;-0.60;99.90;;;;;;5023667;28;20025;-81
2023/02/07 01:41:10;;;;;;;7.63;1.85;;;-0.70;99.90;;;;;;5023138;28;20033;-79
2023/02/07 01:43:53;;;;;;;6.28;2.17;;;-0.60;99.90;;;;;;5025006;28;20065;-80
2023/02/07 01:46:19;;;;;;;8.50;2.15;;;-0.60;99.90;;;;;;5021816;28;20527;-80
2023/02/07 01:48:44;;;;;;;5.38;1.80;;;-0.70;99.90;;;;;;5021933;28;20040;-80
2023/02/07 01:51:11;;;;;;;9.50;2.80;;;-0.80;99.90;;;;;;5022939;28;20071;-82
2023/02/07 01:53:39;;;;;;;6.57;2.28;;;-0.90;99.90;;;;;;5027551;28;20040;-83
2023/02/07 01:56:08;;;;;;;8.18;2.30;;;-1.00;99.90;;;;;;5029938;28;20032;-82
2023/02/07 01:58:35;;;;;;;6.93;2.45;;;-1.10;99.90;;;;;;5024910;28;20028;-82
2023/02/07 02:01:08;;;;;;;8.07;2.25;;;-1.00;99.90;;;;;;5036959;28;20033;-82
2023/02/07 02:03:38;;;;;;;5.90;1.63;;;-1.00;99.90;;;;;;5024932;28;20063;-81
2023/02/07 02:06:04;;;;;;;5.80;2.40;;;-0.80;99.90;;;;;;5055493;28;20021;-83
2023/02/07 02:08:30;;;;;;;6.60;2.47;;;-0.70;99.90;;;;;;5040695;28;20041;-82
2023/02/07 02:11:42;;;;;;;6.30;2.00;;;-0.80;99.90;;;;;;5057357;28;20429;-83
2023/02/07 02:14:31;;;;;;;6.90;1.92;;;-0.80;99.90;;;;;;5050728;28;20045;-82
2023/02/07 02:17:05;;;;;;;8.20;1.98;;;-0.80;99.90;;;;;;5036528;28;20029;-82
2023/02/07 02:20:05;;;;;;;6.65;1.70;;;-0.80;99.90;;;;;;5061139;28;20032;-82
2023/02/07 02:23:12;;;;;;;6.63;1.83;;;-0.80;99.90;;;;;;5032017;28;20037;-82
2023/02/07 02:25:49;;;;;;;5.70;1.85;;;-0.80;99.90;;;;;;5010619;28;20041;-82
2023/02/07 02:28:43;;;;;;;6.40;2.05;;;-1.00;99.90;;;;;;5050204;28;20033;-83
2023/02/07 02:31:27;;;;;;;4.95;1.52;;;-0.90;99.90;;;;;;5037323;28;20041;-82
2023/02/07 02:33:59;;;;;;;6.25;1.85;;;-0.80;99.90;;;;;;5037306;28;20020;-82
2023/02/07 02:36:44;;;;;;;7.20;2.80;;;-0.90;99.90;;;;;;5048555;28;20108;-82
2023/02/07 02:39:31;;;;;;;6.75;2.35;;;-1.00;99.90;;;;;;5018460;28;20481;-82
2023/02/07 02:42:20;;;;;;;6.80;2.55;;;-1.10;99.90;;;;;;5027765;28;20025;-82
2023/02/07 02:44:49;;;;;;;8.20;2.15;;;-1.20;99.90;;;;;;5038264;28;20024;-82
2023/02/07 02:47:17;;;;;;;10.73;2.72;;;-1.30;99.90;;;;;;5040810;28;20036;-82
2023/02/07 02:49:43;;;;;;;10.43;3.00;;;-1.20;99.90;;;;;;5035848;28;20045;-81
2023/02/07 02:52:09;;;;;;;9.68;2.90;;;-1.20;99.90;;;;;;5036044;28;20045;-81
2023/02/07 02:54:37;;;;;;;7.15;2.70;;;-1.30;99.90;;;;;;5020044;28;20017;-82
2023/02/07 02:57:35;;;;;;;6.90;2.47;;;-1.50;99.90;;;;;;5036434;28;20474;-80
2023/02/07 03:00:30;;;;;;;6.90;2.97;;;-1.50;99.90;;;;;;5032437;28;20083;-84
2023/02/07 03:03:01;;;;;;;7.82;2.47;;;-1.50;99.90;;;;;;5026263;28;20037;-81
2023/02/07 03:05:40;;;;;;;5.50;2.25;;;-1.60;99.90;;;;;;5024200;28;20124;-82
2023/02/07 03:08:38;;;;;;;8.98;3.25;;;-1.50;99.90;;;;;;5027588;28;20490;-81
2023/02/07 03:11:17;;;;;;;9.00;2.33;;;-1.70;99.90;;;;;;5052015;28;20033;-82
2023/02/07 03:14:00;;;;;;;4.82;1.73;;;-1.40;99.90;;;;;;5019011;28;20061;-82
2023/02/07 03:16:55;;;;;;;5.65;2.50;;;-1.40;99.90;;;;;;5025238;28;20393;-81
2023/02/07 03:19:31;;;;;;;9.85;2.80;;;-1.50;99.90;;;;;;5035861;28;20037;-80
2023/02/07 03:22:04;;;;;;;6.88;2.17;;;-1.50;99.90;;;;;;5038812;28;20371;-81
2023/02/07 03:24:33;;;;;;;8.25;2.72;;;-1.60;99.90;;;;;;5010511;28;20108;-81
2023/02/07 03:27:05;;;;;;;9.23;2.63;;;-1.70;99.90;;;;;;5036488;28;20025;-81
2023/02/07 03:29:33;;;;;;;8.07;3.40;;;-1.70;99.90;;;;;;5024979;28;20033;-81
2023/02/07 03:32:03;;;;;;;8.20;3.38;;;-1.90;99.90;;;;;;5049052;28;20401;-81
2023/02/07 03:34:40;;;;;;;8.93;2.70;;;-1.90;99.90;;;;;;5029003;28;20025;-81
2023/02/07 03:37:28;;;;;;;6.60;2.08;;;-1.80;99.90;;;;;;5029024;28;20175;-80
2023/02/07 03:39:54;;;;;;;7.57;2.28;;;-1.80;99.90;;;;;;5036113;28;20040;-79
2023/02/07 03:42:28;;;;;;;8.27;2.55;;;-1.90;99.90;;;;;;5039829;28;20032;-82
2023/02/07 03:44:56;;;;;;;6.38;2.55;;;-1.90;99.90;;;;;;5038919;28;20466;-81
2023/02/07 03:47:22;;;;;;;7.70;2.50;;;-1.90;99.90;;;;;;5005770;28;20026;-82
2023/02/07 03:49:47;;;;;;;7.00;2.65;;;-2.00;99.90;;;;;;5035462;28;20417;-82
2023/02/07 03:52:14;;;;;;;8.13;2.33;;;-2.20;99.90;;;;;;5036582;28;20140;-82
2023/02/07 03:54:40;;;;;;;7.25;2.53;;;-2.10;99.90;;;;;;5038907;28;20566;-82
2023/02/07 03:57:05;;;;;;;7.80;2.78;;;-2.10;99.90;;;;;;5019382;28;20558;-82
2023/02/07 03:59:31;;;;;;;5.55;2.15;;;-2.10;99.90;;;;;;5018388;28;20193;-82
2023/02/07 04:01:57;;;;;;;6.00;2.42;;;-2.10;99.90;;;;;;5037453;28;20063;-82
2023/02/07 04:04:22;;;;;;;9.68;2.63;;;-2.20;99.90;;;;;;5035418;28;20085;-82
2023/02/07 04:06:48;;;;;;;6.38;2.50;;;-2.20;99.90;;;;;;5023173;28;20033;-81
2023/02/07 04:09:14;;;;;;;6.05;2.40;;;-2.00;99.90;;;;;;5019577;28;20029;-82
2023/02/07 04:11:40;;;;;;;7.05;2.75;;;-2.20;99.90;;;;;;5026490;28;20072;-81
2023/02/07 04:14:06;;;;;;;7.47;2.50;;;-2.10;99.90;;;;;;5027507;28;20021;-83
2023/02/07 04:16:31;;;;;;;7.68;1.92;;;-2.20;99.90;;;;;;5056453;28;20075;-82
2023/02/07 04:18:57;;;;;;;6.40;2.08;;;-2.10;99.90;;;;;;5024407;28;20428;-84
2023/02/07 04:21:24;;;;;;;5.40;2.28;;;-2.10;99.90;;;;;;5023111;28;20032;-83
2023/02/07 04:23:49;;;;;;;8.68;2.80;;;-2.10;99.90;;;;;;5052877;28;20068;-82
2023/02/07 04:26:16;;;;;;;7.65;3.08;;;-2.20;99.90;;;;;;5034379;28;20044;-82
2023/02/07 04:28:42;;;;;;;6.55;2.70;;;-2.30;99.90;;;;;;5035271;28;20022;-82
2023/02/07 04:31:07;;;;;;;8.32;2.92;;;-2.40;99.90;;;;;;5039216;28;20094;-82
2023/02/07 04:33:33;;;;;;;6.50;2.05;;;-2.50;99.90;;;;;;5019114;28;20034;-82
2023/02/07 04:36:02;;;;;;;5.57;2.20;;;-2.50;99.90;;;;;;5036578;28;20549;-82
2023/02/07 04:38:28;;;;;;;5.25;2.50;;;-2.50;99.90;;;;;;5032054;28;20025;-82
2023/02/07 04:40:58;;;;;;;7.03;2.17;;;-2.30;99.90;;;;;;5043220;28;20078;-82
2023/02/07 04:43:24;;;;;;;;;;;-2.30;99.90;;;;;;5009619;28;20401;-82
2023/02/07 04:45:49;;;;;;;7.60;2.03;;;-2.20;99.90;;;;;;5041611;28;19919;-82
2023/02/07 04:48:16;;;;;;;6.72;1.77;;;-2.30;99.90;;;;;;5046644;28;20175;-82
2023/02/07 04:50:42;;;;;;;6.53;1.73;;;-2.30;99.90;;;;;;5047611;28;20123;-82
2023/02/07 04:53:08;;;;;;;6.28;2.13;;;-2.40;99.90;;;;;;5039489;28;20025;-82
2023/02/07 04:55:36;;;;;;;6.80;1.90;;;-2.40;99.90;;;;;;5042826;28;20393;-82
2023/02/07 04:58:02;;;;;;;4.97;1.70;;;-2.40;99.90;;;;;;5046195;28;20074;-82
2023/02/07 05:00:28;;;;;;;6.47;2.47;;;-2.50;99.90;;;;;;5045565;28;20469;-83
2023/02/07 05:02:54;;;;;;;6.97;1.67;;;-2.40;99.90;;;;;;5023927;28;20124;-82
2023/02/07 05:05:19;;;;;;;7.10;2.33;;;-2.50;99.90;;;;;;5042451;28;20033;-83
2023/02/07 05:07:45;;;;;;;6.65;2.33;;;-2.40;99.90;;;;;;5042236;28;20365;-82
2023/02/07 05:10:11;;;;;;;6.63;2.10;;;-2.20;99.90;;;;;;5026154;28;20033;-82
2023/02/07 05:12:36;;;;;;;7.88;1.90;;;-2.30;99.90;;;;;;5022777;28;20025;-82
2023/02/07 05:15:02;;;;;;;6.30;2.15;;;-2.50;99.90;;;;;;5023143;28;20116;-81
2023/02/07 05:17:29;;;;;;;6.90;2.00;;;-2.50;99.90;;;;;;5022568;28;20393;-83
2023/02/07 05:19:55;;;;;;;7.90;2.70;;;-2.40;99.90;;;;;;5039707;28;20048;-83
2023/02/07 05:22:20;;;;;;;5.63;1.95;;;-2.40;99.90;;;;;;5019185;28;20083;-83
2023/02/07 05:24:46;;;;;;;7.40;2.13;;;-2.40;99.90;;;;;;5048160;28;20047;-82
2023/02/07 05:27:12;;;;;;;8.18;2.53;;;-2.50;99.90;;;;;;5038685;28;20035;-82
2023/02/07 05:29:37;;;;;;;8.02;2.65;;;-2.50;99.90;;;;;;5059104;28;20029;-82
2023/02/07 05:34:47;;;;;;;9.00;3.38;;;-2.70;99.90;;;;;;5042707;28;20036;-82
2023/02/07 05:37:13;;;;;;;7.15;2.63;;;-2.80;99.90;;;;;;5045968;28;20103;-82
2023/02/07 05:39:38;;;;;;;7.45;2.72;;;-2.90;99.90;;;;;;5025518;28;20025;-82
2023/02/07 05:42:04;;;;;;;8.07;3.15;;;-2.80;99.90;;;;;;5041842;28;20024;-82
2023/02/07 05:44:30;;;;;;;6.80;2.58;;;-2.90;99.90;;;;;;5020212;28;20040;-82
2023/02/07 05:46:55;;;;;;;8.40;2.53;;;-3.00;99.90;;;;;;5028929;28;20032;-83
2023/02/07 05:49:21;;;;;;;7.28;2.22;;;-2.90;99.90;;;;;;5026177;28;20048;-83
2023/02/07 05:51:47;;;;;;;7.13;2.75;;;-2.80;99.90;;;;;;5020870;28;20037;-83
2023/02/07 05:54:12;;;;;;;8.20;3.33;;;-2.90;99.90;;;;;;5038117;28;20120;-83
2023/02/07 05:56:38;;;;;;;9.43;3.53;;;-3.00;99.90;;;;;;5039984;28;20040;-84
2023/02/07 05:59:04;;;;;;;7.63;2.60;;;-3.20;99.90;;;;;;5061489;28;20025;-83
2023/02/07 06:01:29;;;;;;;8.10;3.25;;;-3.10;99.90;;;;;;5024556;28;20119;-84
2023/02/07 06:03:55;;;;;;;6.97;2.65;;;-3.00;99.90;;;;;;5043452;28;20112;-83
2023/02/07 06:06:21;;;;;;;7.25;2.45;;;-3.00;99.90;;;;;;5040590;28;20083;-83
2023/02/07 06:08:46;;;;;;;9.48;3.35;;;-3.00;99.90;;;;;;5041636;28;20088;-84
2023/02/07 06:11:12;;;;;;;7.53;2.75;;;-3.00;99.90;;;;;;5042189;28;20511;-83
2023/02/07 06:13:38;;;;;;;5.43;2.25;;;-3.00;99.90;;;;;;5038011;28;20028;-83
2023/02/07 06:16:04;;;;;;;7.97;2.85;;;-3.10;99.90;;;;;;5019416;28;20220;-83
2023/02/07 06:18:29;;;;;;;7.60;3.03;;;-3.30;99.90;;;;;;5009638;28;21897;-83
2023/02/07 06:20:55;;;;;;;7.57;2.70;;;-3.40;99.90;;;;;;5046229;28;20036;-84
2023/02/07 06:23:21;;;;;;;8.05;2.58;;;-3.10;99.90;;;;;;5042473;28;20556;-82
2023/02/07 06:25:47;;;;;;;7.97;2.42;;;-3.00;99.90;;;;;;5041653;28;20036;-83
2023/02/07 06:28:13;;;;;;;9.07;2.58;;;-3.30;99.90;;;;;;5044546;28;20394;-85
2023/02/07 06:30:39;;;;;;;9.27;3.33;;;-3.50;99.90;;;;;;5042152;28;20035;-83
2023/02/07 06:33:05;;;;;;;7.45;2.42;;;-3.50;99.90;;;;;;5040767;28;20485;-83
2023/02/07 06:35:48;;;;;;;;;;;;;;;;;;;;;
2023/02/07 07:07:45;;;;;;;10.55;3.17;;;-3.30;99.90;;;;;;4826931;29;20034;-88
2023/02/07 07:14:04;;;;;;;;;;;;;;;;;;;;;
2023/02/07 07:16:40;;;;;;;7.32;2.25;;;-3.70;99.90;;;;;;4872069;29;20040;-88
2023/02/07 07:19:28;;;;;;;8.40;2.38;;;-3.60;99.90;;;;;;4929319;28;20744;-88
2023/02/07 07:22:19;;;;;;;7.95;1.67;;;-3.60;99.90;;;;;;4936980;28;20494;-88
2023/02/07 07:25:07;;;;;;;7.45;2.28;;;-3.50;99.90;;;;;;4943370;28;20134;-90
2023/02/07 07:27:45;;;;;;;8.90;2.53;;;-3.50;99.90;;;;;;4936912;28;20028;-85
2023/02/07 07:30:32;;;;;;;7.28;2.35;;;-3.80;99.90;;;;;;4950552;28;20218;-86
2023/02/07 07:33:34;;;;;;;8.45;2.47;;;-3.70;99.90;;;;;;4944214;28;20051;-85
2023/02/07 07:36:08;;;;;;;7.68;2.42;;;-3.60;99.90;;;;;;4962484;28;20058;-86
2023/02/07 07:39:49;;;;;;;8.68;2.65;;;-3.70;99.90;;;;;;5040010;28;20040;-85
2023/02/07 07:42:38;;;;;;;6.78;2.72;;;-3.70;99.90;;;;;;5053610;28;20024;-86
2023/02/07 07:45:37;;;;;;;;;;;;;;;;;;;;;
2023/02/07 07:48:37;;;;;;;8.77;2.22;;;-3.50;99.90;;;;;;5045600;28;20074;-88
2023/02/07 07:51:38;;;;;;;7.93;2.83;;;-3.30;99.90;;;;;;5051847;28;20052;-89
2023/02/07 08:01:28;;;;;;;7.22;2.20;;;-3.50;99.90;;;;;;4982429;28;20076;-85
2023/02/07 08:11:57;;;;;;;;;;;;;;;;;;;;;
2023/02/07 08:36:59;;;;;;;5.30;1.67;;;-2.80;99.90;;;;;;4913650;29;20555;-86
2023/02/07 08:39:57;;;;;;;6.38;1.67;;;-2.80;99.90;;;;;;4966924;28;20417;-85
2023/02/07 08:43:01;;;;;;;5.45;1.67;;;-2.70;99.90;;;;;;4931460;28;20047;-87
2023/02/07 08:46:05;;;;;;;6.80;2.00;;;-2.70;99.90;;;;;;4939093;28;20039;-85
2023/02/07 09:02:43;;;;;;;8.20;3.25;;;-1.90;99.90;;;;;;4929546;28;20043;-86
2023/02/07 09:06:04;;;;;;;9.48;2.97;;;-1.70;99.90;;;;;;4952623;28;20069;-85
2023/02/07 09:12:32;;;;;;;;;;;;;;;;;;;;;
2023/02/07 09:15:45;;;;;;;7.40;2.92;;;-1.30;99.90;;;;;;4954645;28;20492;-85
2023/02/07 09:18:34;;;;;;;9.02;3.00;;;-1.20;99.90;;;;;;4970596;28;20546;-84
2023/02/07 09:21:36;;;;;;;8.23;2.95;;;-1.00;99.90;;;;;;4951429;28;20237;-85
2023/02/07 09:24:41;;;;;;;6.50;2.75;;;-0.90;99.90;;;;;;4953202;28;20038;-83
2023/02/07 09:27:19;;;;;;;9.77;3.53;;;-0.70;99.90;;;;;;4950846;28;20019;-84
2023/02/07 09:30:06;;;;;;;6.63;3.65;;;-0.60;99.90;;;;;;5026455;28;20029;-85
2023/02/07 09:33:10;;;;;;;8.93;4.18;;;-0.40;99.90;;;;;;5048082;28;20040;-85
2023/02/07 09:35:53;;;;;;;7.72;2.92;;;-0.30;99.90;;;;;;5013527;28;20033;-85
2023/02/07 09:38:50;;;;;;;6.43;3.45;;;-0.20;99.90;;;;;;5007000;28;20057;-85
2023/02/07 09:41:30;;;;;;;;;;;;;;;;;;;;;
2023/02/07 09:44:47;;;;;;;5.80;2.55;;;0.10;99.90;;;;;;5024644;28;20037;-85
2023/02/07 09:51:21;;;;;;;6.47;3.22;;;0.50;99.90;;;;;;5050603;28;20048;-85
2023/02/07 09:57:19;;;;;;;7.15;3.53;;;0.70;99.90;;;;;;5037712;28;20040;-86
2023/02/07 10:00:20;;;;;;;7.00;3.08;;;0.90;99.90;;;;;;5033313;28;20044;-85
2023/02/07 10:03:24;;;;;;;5.18;2.10;;;1.10;99.90;;;;;;5034393;28;20048;-85
2023/02/07 10:09:27;;;;;;;6.10;2.50;;;1.10;99.90;;;;;;5035613;28;20056;-87
2023/02/07 10:12:53;;;;;;;4.10;1.88;;;1.30;99.90;;;;;;5015767;28;20037;-85
2023/02/07 10:16:15;;;;;;;5.78;2.17;;;1.50;99.90;;;;;;5022444;28;20037;-86
2023/02/07 10:19:23;;;;;;;6.15;2.53;;;1.50;99.90;;;;;;4961087;28;20073;-83
2023/02/07 10:21:58;;;;;;;4.53;2.45;;;1.60;99.90;;;;;;4964985;28;20039;-81
2023/02/07 10:24:39;;;;;;;5.88;2.83;;;1.80;99.90;;;;;;4950387;28;20538;-86
2023/02/07 10:27:10;;;;;;;5.28;2.33;;;1.90;99.90;;;;;;4962410;28;20034;-87
2023/02/07 10:29:41;;;;;;;;;;;2.00;99.90;;;;;;4931361;28;20027;-87
2023/02/07 10:32:23;;;;;;;3.83;1.30;;;2.10;99.90;;;;;;4962899;28;19925;-81
2023/02/07 10:34:52;;;;;;;4.15;2.03;;;2.20;99.90;;;;;;4945860;28;20035;-83
2023/02/07 10:37:27;;;;;;;4.80;1.80;;;2.30;99.90;;;;;;4933545;28;20500;-81
2023/02/07 10:40:35;;;;;;;4.97;2.38;;;2.40;99.90;;;;;;4943227;28;20388;-80
2023/02/07 10:43:24;;;;;;;4.75;2.22;;;2.50;99.90;;;;;;4888680;29;20050;-80
2023/02/07 10:45:51;;;;;;;4.82;2.03;;;2.60;99.90;;;;;;4888775;29;20074;-82
2023/02/07 10:48:18;;;;;;;4.47;1.85;;;2.70;99.90;;;;;;4892406;29;20035;-81
2023/02/07 10:50:44;;;;;;;3.95;1.83;;;2.70;99.90;;;;;;4889482;29;20044;-81
2023/02/07 10:53:10;;;;;;;3.90;2.00;;;2.70;99.90;;;;;;4925692;28;20109;-84
2023/02/07 10:55:40;;;;;;;4.65;2.10;;;2.70;99.90;;;;;;4947520;28;20067;-81
2023/02/07 10:58:12;;;;;;;4.13;1.83;;;2.80;99.90;;;;;;4923456;29;20043;-80
2023/02/07 11:00:39;;;;;;;4.72;2.35;;;2.80;99.90;;;;;;4931175;28;20039;-81
2023/02/07 11:03:12;;;;;;;5.07;2.38;;;2.90;99.90;;;;;;4928201;29;20034;-81
2023/02/07 11:05:51;;;;;;;3.45;2.03;;;3.00;99.90;;;;;;4942448;28;20415;-80
2023/02/07 11:08:21;;;;;;;4.90;2.20;;;3.10;99.90;;;;;;4926623;28;20062;-82
2023/02/07 11:10:49;;;;;;;5.50;2.20;;;3.20;99.90;;;;;;4926404;28;20126;-80
2023/02/07 11:13:18;;;;;;;3.40;1.73;;;3.10;99.90;;;;;;4928190;29;20078;-84
2023/02/07 11:15:55;;;;;;;4.38;1.60;;;3.20;99.90;;;;;;4926938;28;20587;-79
2023/02/07 11:18:36;;;;;;;3.60;1.30;;;3.30;99.90;;;;;;5042979;28;20033;-86
2023/02/07 11:21:03;;;;;;;;;;;3.30;99.90;;;;;;5018564;28;20037;-85
2023/02/07 11:23:28;;;;;;;3.53;1.30;;;3.40;99.90;;;;;;5043127;28;19913;-89
2023/02/07 11:25:56;;;;;;;2.85;1.10;;;3.50;99.90;;;;;;5025893;28;20043;-83
2023/02/07 11:28:26;;;;;;;2.38;0.73;;;3.40;99.90;;;;;;5043872;28;20487;-87
2023/02/07 11:31:11;;;;;;;2.75;1.00;;;3.60;99.90;;;;;;5031379;28;20057;-81
2023/02/07 11:33:37;;;;;;;3.25;1.50;;;3.50;99.90;;;;;;5031674;28;20106;-81
2023/02/07 11:36:05;;;;;;;4.00;1.40;;;3.70;99.90;;;;;;5043660;28;20681;-81
2023/02/07 11:38:40;;;;;;;3.70;1.73;;;3.70;99.90;;;;;;5013509;28;20444;-81
2023/02/07 11:41:19;;;;;;;4.28;1.73;;;3.60;99.90;;;;;;5030668;28;20025;-79
2023/02/07 11:44:12;;;;;;;2.80;1.23;;;3.70;99.90;;;;;;5013538;28;20040;-80
2023/02/07 11:46:41;;;;;;;2.85;0.95;;;3.80;99.90;;;;;;5042565;28;20025;-80
2023/02/07 11:49:32;;;;;;;4.68;1.23;;;3.80;99.90;;;;;;5023233;28;20082;-89
2023/02/07 11:52:04;;;;;;;2.22;0.95;;;3.80;99.90;;;;;;5000717;28;20044;-84
2023/02/07 11:55:22;;;;;;;2.58;1.00;;;4.00;99.90;;;;;;5026732;28;20029;-80
2023/02/07 11:58:10;;;;;;;1.65;0.70;;;3.90;99.90;;;;;;5024871;28;20111;-88
2023/02/07 12:00:37;;;;;;;2.92;0.68;;;4.00;99.90;;;;;;5005408;28;20033;-81
2023/02/07 12:03:11;;;;;;;1.73;0.70;;;4.10;99.90;;;;;;5013307;28;20485;-82
2023/02/07 12:05:43;;;;;;;4.53;1.42;;;4.00;99.90;;;;;;5011997;28;20021;-80
2023/02/07 12:08:18;;;;;;;2.55;1.27;;;4.20;99.90;;;;;;5024503;28;20033;-80
2023/02/07 12:10:50;;;;;;;4.65;1.17;;;4.20;99.90;;;;;;5026444;28;20061;-79
2023/02/07 12:13:27;;;;;;;3.28;1.25;;;4.30;99.90;;;;;;5031342;28;20046;-82
2023/02/07 12:16:06;;;;;;;3.03;1.20;;;4.10;99.90;;;;;;5021986;28;20052;-80
2023/02/07 12:18:41;;;;;;;3.70;1.20;;;4.20;99.90;;;;;;5036224;28;20028;-85
2023/02/07 12:21:53;;;;;;;2.55;0.95;;;4.40;99.90;;;;;;5027441;28;20030;-80
2023/02/07 12:24:35;;;;;;;2.83;1.20;;;4.30;99.90;;;;;;5026559;28;20482;-79
2023/02/07 12:27:16;;;;;;;2.78;1.50;;;4.50;99.90;;;;;;5027684;28;20063;-82
2023/02/07 12:30:33;;;;;;;2.22;0.90;;;4.40;99.90;;;;;;5022369;28;20538;-80
2023/02/07 12:33:20;;;;;;;2.17;1.02;;;4.40;99.90;;;;;;5010133;28;20041;-88
2023/02/07 12:36:09;;;;;;;2.88;1.20;;;4.40;99.90;;;;;;5023218;28;20409;-89
2023/02/07 12:38:49;;;;;;;3.75;2.00;;;4.50;99.90;;;;;;5009588;28;20054;-80
2023/02/07 12:41:39;;;;;;;4.45;1.77;;;4.50;99.90;;;;;;5020809;28;20036;-83
2023/02/07 12:44:37;;;;;;;3.17;1.33;;;4.40;99.90;;;;;;5040245;28;20044;-79
2023/02/07 12:47:08;;;;;;;2.30;1.17;;;4.30;99.90;;;;;;5040644;28;20029;-82
2023/02/07 12:49:49;;;;;;;3.38;1.10;;;4.30;99.90;;;;;;5007143;28;20061;-80
2023/02/07 12:52:34;;;;;;;2.55;1.33;;;4.40;99.90;;;;;;5022572;28;20152;-81
2023/02/07 12:55:32;;;;;;;2.30;1.10;;;4.40;99.90;;;;;;5009568;28;20057;-84
2023/02/07 12:58:04;;;;;;;3.97;2.03;;;4.40;99.90;;;;;;5024111;28;20573;-81
2023/02/07 13:01:02;;;;;;;3.22;2.10;;;4.60;99.90;;;;;;5028920;28;20056;-87
2023/02/07 13:04:02;;;;;;;2.40;1.35;;;4.70;99.90;;;;;;5016113;28;20485;-86
2023/02/07 13:06:41;;;;;;;2.80;1.02;;;4.80;99.90;;;;;;5006202;28;20103;-80
2023/02/07 13:09:42;;;;;;;2.85;1.13;;;4.70;99.90;;;;;;5039047;28;20056;-80
2023/02/07 13:12:08;;;;;;;2.95;1.30;;;4.70;99.90;;;;;;5012374;28;20047;-89
2023/02/07 13:15:15;;;;;;;3.08;1.40;;;4.80;99.90;;;;;;5043186;28;20064;-82
2023/02/07 13:17:56;;;;;;;2.50;1.13;;;4.70;99.90;;;;;;4987840;28;20613;-88
2023/02/07 13:20:31;;;;;;;2.80;1.20;;;4.80;99.90;;;;;;4971895;28;20078;-80
2023/02/07 13:23:08;;;;;;;4.45;1.40;;;4.70;99.90;;;;;;4973099;28;20364;-86
2023/02/07 13:25:39;;;;;;;2.97;1.27;;;4.90;99.90;;;;;;4975077;28;20030;-82
2023/02/07 13:29:01;;;;;;;2.30;1.10;;;5.00;99.90;;;;;;4985875;28;20057;-89
2023/02/07 13:31:50;;;;;;;2.83;1.38;;;4.80;99.90;;;;;;4969444;28;20051;-82
2023/02/07 13:34:24;;;;;;;2.92;1.52;;;5.00;99.90;;;;;;4967602;28;20038;-81
2023/02/07 13:36:51;;;;;;;3.65;1.80;;;4.90;99.90;;;;;;4947844;28;20060;-88
2023/02/07 13:39:19;;;;;;;2.28;1.13;;;5.10;99.90;;;;;;4951746;28;20049;-88
2023/02/07 13:41:58;;;;;;;3.95;1.70;;;5.10;99.90;;;;;;4959690;28;20506;-89
2023/02/07 13:44:47;;;;;;;2.72;1.15;;;5.00;99.90;;;;;;5006118;28;20047;-82
2023/02/07 13:47:52;;;;;;;3.22;1.63;;;5.00;99.90;;;;;;5033471;28;20458;-89
2023/02/07 13:50:47;;;;;;;3.28;1.35;;;5.00;99.90;;;;;;5015849;28;20064;-88
2023/02/07 13:53:25;;;;;;;2.47;0.90;;;5.00;99.90;;;;;;5035577;28;20126;-82
2023/02/07 13:55:51;;;;;;;2.55;0.70;;;4.90;99.90;;;;;;5038931;28;20041;-82
2023/02/07 14:01:23;;;;;;;3.65;0.85;;;5.30;99.90;;;;;;5043102;28;20494;-86
2023/02/07 14:04:19;;;;;;;1.88;0.88;;;5.20;99.90;;;;;;5046170;28;20029;-86
2023/02/07 14:07:14;;;;;;;;;;;;;;;;;;;;;
2023/02/07 14:10:49;;;;;;;1.85;0.85;;;5.10;99.90;;;;;;5048574;28;20453;-88
2023/02/07 14:16:59;;;;;;;3.13;0.80;;;4.80;99.90;;;;;;5005215;28;20382;-88
2023/02/07 14:20:59;;;;;;;3.35;1.48;;;5.00;99.90;;;;;;5026421;28;20044;-84
2023/02/07 14:50:06;;;;;;;2.55;1.02;;;4.60;99.90;;;;;;5012583;28;20095;-89
2023/02/07 14:53:30;;;;;;;2.25;0.75;;;4.60;99.90;;;;;;5003547;28;20045;-90
2023/02/07 15:00:35;;;;;;;3.42;0.80;;;4.40;99.90;;;;;;4899342;29;20081;-89
2023/02/07 15:11:35;;;;;;;;;;;;;;;;;;;;;
2023/02/07 15:14:11;;;;;;;3.08;1.00;;;4.20;99.90;;;;;;4965562;28;20026;-82
2023/02/07 15:16:53;;;;;;;3.95;1.38;;;4.20;99.90;;;;;;4968735;28;20558;-83
2023/02/07 15:19:35;;;;;;;4.15;1.08;;;4.00;99.90;;;;;;4949766;28;20045;-87
2023/02/07 15:22:37;;;;;;;2.25;1.00;;;4.00;99.90;;;;;;4984468;28;20034;-84
2023/02/07 15:25:29;;;;;;;3.60;1.20;;;4.10;99.90;;;;;;4954173;28;20078;-87
2023/02/07 15:28:22;;;;;;;3.60;1.55;;;4.00;99.90;;;;;;4952456;28;20137;-84
2023/02/07 15:31:13;;;;;;;2.97;1.27;;;4.00;99.90;;;;;;4953831;28;20132;-81
2023/02/07 15:34:03;;;;;;;3.08;1.30;;;4.00;99.90;;;;;;4969151;28;20037;-86
2023/02/07 15:36:39;;;;;;;2.55;1.00;;;3.90;99.90;;;;;;4969829;28;20133;-89
2023/02/07 15:39:17;;;;;;;3.63;1.33;;;3.90;99.90;;;;;;4953467;28;20026;-87
2023/02/07 15:41:51;;;;;;;4.35;1.75;;;3.90;99.90;;;;;;4984183;28;20070;-88
2023/02/07 15:44:32;;;;;;;3.38;1.00;;;3.80;99.90;;;;;;4968953;28;20030;-88
2023/02/07 15:47:05;;;;;;;4.28;2.13;;;3.80;99.90;;;;;;4965430;28;20038;-83
2023/02/07 15:49:41;;;;;;;2.28;1.25;;;3.80;99.90;;;;;;4981757;28;20034;-86
2023/02/07 15:52:15;;;;;;;2.67;1.13;;;3.70;99.90;;;;;;4954424;28;20483;-88
2023/02/07 15:54:54;;;;;;;3.70;1.50;;;3.60;99.90;;;;;;4982240;28;20030;-84
2023/02/07 15:57:35;;;;;;;2.60;1.33;;;3.60;99.90;;;;;;4963804;28;20378;-88
2023/02/07 16:00:27;;;;;;;3.92;1.08;;;3.50;99.90;;;;;;4966967;28;20085;-83
2023/02/07 16:02:55;;;;;;;2.17;1.20;;;3.50;99.90;;;;;;4947925;28;20053;-86
2023/02/07 16:05:31;;;;;;;2.92;1.50;;;3.40;99.90;;;;;;4983878;28;20030;-89
2023/02/07 16:08:01;;;;;;;3.90;1.73;;;3.50;99.90;;;;;;4968364;28;20049;-84
2023/02/07 16:10:32;;;;;;;;;;;3.40;99.90;;;;;;4953085;28;20045;-89
2023/02/07 16:12:57;;;;;;;;;;;3.40;99.90;;;;;;4978053;28;19925;-89
2023/02/07 16:15:28;;;;;;;2.53;1.23;;;3.60;99.90;;;;;;4975545;28;20023;-88
2023/02/07 16:17:54;;;;;;;3.55;1.27;;;3.70;99.90;;;;;;4956320;28;20076;-88
2023/02/07 16:20:21;;;;;;;3.13;1.67;;;3.80;99.90;;;;;;4952229;28;20026;-83
2023/02/07 16:22:48;;;;;;;2.42;1.17;;;3.50;99.90;;;;;;4961618;28;20284;-87